Latest Weather Observations for Warra

IDT60801

Issued at 6:31 pm EDT Tuesday 17 October 2017 (issued every 30 minutes, with the page automatically refreshed every 10 minutes)

About weather observations | Map of weather stations | Latest weather observations for TAS | Other Formats
Station Details ID: 097024 Name: WARRA Lat: -43.06 Lon: 146.70 Height: 495.0 m
Data from the previous 72 hours. | See also: Recent months at Warra
Date/Time
EDT
Temp
°C
App
Temp
°C
Dew
Point
°C
Rel
Hum
%
Delta-T
°C
Wind Press
QNH
hPa
Press
MSL
hPa
Rain since
9am
mm
Dir  Spd
km/h
Gust
km/h
Spd
kts
Gust
kts
17/06:30pm 22.7 20.8 9.1 42 7.5 WNW 9 15 5 8 - - 0.0
17/06:00pm 23.8 22.5 10.1 42 7.7 S 7 11 4 6 - - 0.0
17/05:30pm 24.3 22.6 9.8 40 8.1 NNE 9 13 5 7 - - 0.0
17/05:00pm 24.2 22.2 10.1 41 7.9 N 11 17 6 9 - - 0.0
17/04:30pm 24.6 22.5 9.7 39 8.3 N 11 19 6 10 - - 0.0
17/04:00pm 24.5 23.0 8.5 36 8.8 WNW 6 13 3 7 - - 0.0
17/03:30pm 24.2 22.5 8.2 36 8.7 SE 7 13 4 7 - - 0.0
17/03:00pm 25.0 22.3 8.9 36 8.9 NW 13 22 7 12 - - 0.0
17/02:30pm 23.4 21.5 7.5 36 8.5 W 7 17 4 9 - - 0.0
17/02:00pm 23.3 20.7 6.1 33 9.0 WSW 9 17 5 9 - - 0.0
17/01:30pm 23.1 20.2 6.4 34 8.7 NW 11 20 6 11 - - 0.0
17/01:00pm 23.8 20.8 6.1 32 9.3 W 11 20 6 11 - - 0.0
17/12:30pm 22.4 20.9 10.5 47 6.7 NE 9 13 5 7 - - 0.0
17/12:00pm 20.6 19.5 10.1 51 5.8 NNW 6 11 3 6 - - 0.0
17/11:30am 20.3 19.0 10.1 52 5.6 NNE 7 13 4 7 - - 0.0
17/11:00am 19.2 18.1 10.7 58 4.7 NE 7 9 4 5 - - 0.0
17/10:30am 19.1 17.9 9.6 54 5.2 NE 6 9 3 5 - - 0.0
17/10:00am 18.0 16.8 9.4 57 4.6 ENE 6 11 3 6 - - 0.0
17/09:30am 18.0 16.6 9.4 57 4.6 NNE 7 13 4 7 - - 0.0
17/09:00am 17.8 15.9 8.9 56 4.7 NNW 9 17 5 9 - - 0.0
17/08:30am 15.1 15.0 10.9 76 2.3 NW 2 7 1 4 - - 0.0
17/08:00am 13.0 12.2 10.9 87 1.1 WSW 6 9 3 5 - - 0.0
17/07:30am 10.4 10.2 10.4 100 0.0 WSW 2 7 1 4 - - 0.0
17/07:00am 9.3 9.2 9.3 100 0.0 CALM 0 9 0 5 - - 0.0
17/06:30am 7.9 7.4 7.9 100 0.0 CALM 0 6 0 3 - - 0.0
17/06:00am 8.3 7.9 8.3 100 0.0 CALM 0 0 0 0 - - 0.0
17/05:30am 7.8 5.6 7.8 100 0.0 NNW 9 11 5 6 - - 0.0
17/05:00am 8.2 6.6 8.2 100 0.0 SW 6 9 3 5 - - 0.0
17/04:30am 7.3 6.7 7.3 100 0.0 CALM 0 6 0 3 - - 0.0
17/04:00am 7.5 5.8 7.5 100 0.0 SW 6 7 3 4 - - 0.0
17/03:30am 8.4 6.9 8.4 100 0.0 NW 6 7 3 4 - - 0.0
17/03:00am 7.9 7.4 7.9 100 0.0 CALM 0 0 0 0 - - 0.0
17/02:30am 8.4 7.3 8.4 100 0.0 WSW 4 7 2 4 - - 0.0
17/02:00am 7.6 6.7 7.6 100 0.0 WNW 2 7 1 4 - - 0.0
17/01:30am 7.4 6.0 7.3 99 0.0 W 4 6 2 3 - - 0.0
17/01:00am 6.8 4.9 6.7 99 0.0 W 6 7 3 4 - - 0.0
17/12:30am 6.4 4.2 6.0 97 0.2 W 7 9 4 5 - - 0.0
17/12:00am 6.6 5.5 5.2 91 0.6 CALM 0 0 0 0 - - 0.0
 
Date/Time
EDT
Temp
°C
App
Temp
°C
Dew
Point
°C
Rel
Hum
%
Delta-T
°C
Wind Press
QNH
hPa
Press
MSL
hPa
Rain since
9am
mm
Dir  Spd
km/h
Gust
km/h
Spd
kts
Gust
kts
16/11:30pm 7.4 6.3 4.9 84 1.1 CALM 0 0 0 0 - - 0.0
16/11:00pm 8.2 6.6 4.4 77 1.7 ENE 2 6 1 3 - - 0.0
16/10:30pm 8.5 6.3 5.3 80 1.5 NE 6 6 3 3 - - 0.0
16/10:00pm 8.8 6.8 6.1 83 1.3 N 6 7 3 4 - - 0.0
16/09:30pm 8.8 8.1 6.8 87 1.0 CALM 0 0 0 0 - - 0.0
16/09:00pm 10.1 9.5 7.2 82 1.4 CALM 0 0 0 0 - - 0.0
16/08:30pm 11.0 9.8 8.1 82 1.5 S 4 7 2 4 - - 0.0
16/08:00pm 11.1 9.5 8.7 85 1.2 NW 7 9 4 5 - - 0.0
16/07:30pm 13.5 13.4 9.4 76 2.1 CALM 0 6 0 3 - - 0.0
16/07:00pm 15.6 14.6 10.4 71 2.8 NE 6 9 3 5 - - 0.0
16/06:30pm 17.1 16.9 10.5 65 3.6 NE 2 7 1 4 - - 0.0
16/06:00pm 18.9 17.2 9.7 55 5.0 ESE 9 15 5 8 - - 0.0
16/05:30pm 21.4 19.2 8.0 42 7.2 S 9 13 5 7 - - 0.0
16/05:00pm 22.1 19.3 5.1 33 8.6 SW 9 17 5 9 - - 0.0
16/04:30pm 22.8 20.1 5.7 33 8.8 WSW 9 17 5 9 - - 0.0
16/04:00pm 22.6 19.7 4.6 31 9.1 ESE 9 17 5 9 - - 0.0
16/03:30pm 22.7 20.2 6.5 35 8.5 ESE 9 15 5 8 - - 0.0
16/03:00pm 22.4 19.9 6.6 36 8.3 ESE 9 13 5 7 - - 0.0
16/02:30pm 21.8 19.3 6.5 37 8.0 ESE 9 15 5 8 - - 0.0
16/02:00pm 21.3 18.9 7.2 40 7.4 SE 9 13 5 7 - - 0.0
16/01:30pm 20.7 18.8 7.7 43 6.9 SE 7 13 4 7 - - 0.0
16/01:00pm 20.5 18.8 7.5 43 6.8 ESE 6 11 3 6 - - 0.0
16/12:30pm 19.7 17.8 7.4 45 6.4 SE 7 13 4 7 - - 0.0
16/12:00pm 19.3 17.1 7.7 47 6.1 SE 9 11 5 6 - - 0.0
16/11:30am 18.5 16.7 7.9 50 5.6 SE 7 9 4 5 - - 0.0
16/11:00am 18.8 17.5 9.3 54 5.1 E 6 9 3 5 - - 0.0
16/10:30am 17.8 16.7 10.7 63 3.9 ESE 7 9 4 5 - - 0.0
16/10:00am 17.6 15.8 7.1 50 5.4 NE 6 9 3 5 - - 0.0
16/09:30am 16.3 15.7 9.0 62 3.9 E 2 7 1 4 - - 0.0
16/09:00am 16.5 14.8 7.7 56 4.5 SE 6 7 3 4 - - 0.0
16/08:30am 13.9 13.5 8.1 68 3.0 CALM 0 6 0 3 - - 0.0
16/08:00am 11.2 10.9 8.8 85 1.2 CALM 0 0 0 0 - - 0.0
16/07:30am 9.5 9.1 8.3 92 0.6 CALM 0 4 0 2 - - 0.0
16/07:00am 7.4 5.0 5.4 87 0.9 SW 7 9 4 5 - - 0.0
16/06:30am 3.9 2.2 3.8 99 0.0 NW 2 6 1 3 - - 0.0
16/06:00am 3.9 2.2 3.8 99 0.0 SW 2 6 1 3 - - 0.0
16/05:30am 3.7 1.0 3.7 100 0.0 SW 7 9 4 5 - - 0.0
16/05:00am 4.1 2.8 4.1 100 0.0 CALM 0 0 0 0 - - 0.0
16/04:30am 4.5 3.3 4.5 100 0.0 CALM 0 0 0 0 - - 0.0
16/04:00am 4.6 3.4 4.5 99 0.0 CALM 0 0 0 0 - - 0.0
16/03:30am 4.4 3.2 4.4 100 0.0 CALM 0 0 0 0 - - 0.0
16/03:00am 4.8 3.3 4.8 100 0.0 NW 2 7 1 4 - - 0.0
16/02:30am 5.0 3.9 4.9 99 0.0 CALM 0 0 0 0 - - 0.0
16/02:00am 5.1 4.0 5.0 99 0.0 CALM 0 0 0 0 - - 0.0
16/01:30am 5.5 4.0 4.9 96 0.3 SSW 2 7 1 4 - - 0.0
16/01:00am 5.8 4.5 4.3 90 0.7 CALM 0 0 0 0 - - 0.0
16/12:30am 7.0 4.4 4.0 81 1.3 SW 7 11 4 6 - - 0.0
16/12:00am 7.4 4.5 4.5 82 1.3 WSW 9 11 5 6 - - 0.0
 
Date/Time
EDT
Temp
°C
App
Temp
°C
Dew
Point
°C
Rel
Hum
%
Delta-T
°C
Wind Press
QNH
hPa
Press
MSL
hPa
Rain since
9am
mm
Dir  Spd
km/h
Gust
km/h
Spd
kts
Gust
kts
15/11:30pm 7.6 5.3 5.7 88 0.9 SW 7 11 4 6 - - 0.0
15/11:00pm 8.0 5.7 5.6 85 1.1 WSW 7 9 4 5 - - 0.0
15/10:30pm 8.3 5.6 5.4 82 1.3 W 9 11 5 6 - - 0.0
15/10:00pm 10.2 7.2 6.2 76 1.9 W 11 15 6 8 - - 0.0
15/09:30pm 10.5 7.6 6.5 76 1.9 W 11 15 6 8 - - 0.0
15/09:00pm 10.2 7.2 6.2 76 1.9 WNW 11 15 6 8 - - 0.0
15/08:30pm 10.5 7.6 6.3 75 2.0 WNW 11 17 6 9 - - 0.0
15/08:00pm 10.2 7.6 6.2 76 1.9 W 9 13 5 7 - - 0.0
15/07:30pm 11.4 9.2 6.3 71 2.5 WNW 7 9 4 5 - - 0.0
15/07:00pm 14.1 11.1 6.0 58 4.0 WSW 11 15 6 8 - - 0.0
15/06:30pm 15.6 13.9 5.8 52 4.8 SW 4 9 2 5 - - 0.0
15/06:00pm 16.5 14.0 4.9 46 5.7 WNW 7 11 4 6 - - 0.0
15/05:30pm 16.6 13.7 4.6 45 5.8 NW 9 20 5 11 - - 0.0
15/05:00pm 17.5 13.5 5.1 44 6.1 WNW 15 24 8 13 - - 0.0
15/04:30pm 17.8 14.3 5.4 44 6.2 W 13 24 7 13 - - 0.0
15/04:00pm 18.2 14.2 5.1 42 6.5 W 15 28 8 15 - - 0.0
15/03:30pm 18.1 13.5 5.7 44 6.2 W 19 35 10 19 - - 0.0
15/03:00pm 17.9 13.5 6.7 48 5.7 W 19 35 10 19 - - 0.0
15/02:30pm 18.3 14.7 6.8 47 5.9 W 15 35 8 19 - - 0.0
15/02:00pm 17.9 14.7 6.7 48 5.7 W 13 28 7 15 - - 0.0
15/01:30pm 17.1 12.5 5.7 47 5.7 W 19 35 10 19 - - 0.0
15/01:00pm 17.5 13.1 6.4 48 5.6 W 19 39 10 21 - - 0.0
15/12:30pm 16.6 12.1 6.1 50 5.2 W 19 41 10 22 - - 0.0
15/12:00pm 16.1 12.3 6.0 51 5.0 WSW 15 30 8 16 - - 0.0
15/11:30am 15.4 12.1 6.2 54 4.6 WSW 13 35 7 19 - - 0.0
15/11:00am 14.9 11.9 7.7 62 3.7 W 13 28 7 15 - - 0.0
15/10:30am 13.2 9.4 7.6 69 2.8 W 17 30 9 16 - - 0.0
15/10:00am 12.7 8.9 7.6 71 2.6 WSW 17 33 9 18 - - 0.0
15/09:30am 12.0 8.2 7.5 74 2.2 WSW 17 33 9 18 - - 0.0
15/09:00am 11.4 7.8 6.9 74 2.2 W 15 33 8 18 - - 0.0
15/08:30am 10.5 6.5 6.5 76 1.9 W 17 35 9 19 - - 0.0
15/08:00am 9.7 6.7 6.2 79 1.7 SSW 11 20 6 11 - - 0.0
15/07:30am 9.1 6.9 6.4 83 1.3 S 7 19 4 10 - - 0.0
15/07:00am 7.6 5.4 6.2 91 0.7 ESE 7 17 4 9 - - 0.0
15/06:30am 6.4 3.5 6.3 99 0.0 SE 11 15 6 8 - - 0.0
15/06:00am 5.9 3.6 5.8 99 0.0 ESE 7 13 4 7 - - 0.0
15/05:30am 6.2 4.2 6.2 100 0.0 NNE 6 17 3 9 - - 0.0
15/05:00am 6.3 4.3 6.3 100 0.0 NNW 6 9 3 5 - - 0.0
15/04:30am 6.0 4.3 6.0 100 0.0 NE 4 9 2 5 - - 0.0
15/04:00am 6.3 4.7 6.3 100 0.0 ENE 4 7 2 4 - - 0.0
15/03:30am 6.5 4.4 6.5 100 0.0 NNW 7 13 4 7 - - 0.0
15/03:00am 5.9 3.8 5.9 100 0.0 NNE 6 11 3 6 - - 0.0
15/02:30am 5.9 3.6 5.9 100 0.0 NNE 7 11 4 6 - - 0.0
15/02:00am 6.1 4.4 6.0 99 0.0 ENE 4 7 2 4 - - 0.0
15/01:30am 6.2 4.9 6.1 99 0.0 SE 2 6 1 3 - - 0.0
15/01:00am 6.9 3.6 6.5 97 0.2 NNW 13 28 7 15 - - 0.0
15/12:30am 6.9 3.2 6.2 95 0.3 NNW 15 20 8 11 - - 0.0
15/12:00am 6.9 3.1 5.8 93 0.5 NNW 15 28 8 15 - - 0.0
 
Date/Time
EDT
Temp
°C
App
Temp
°C
Dew
Point
°C
Rel
Hum
%
Delta-T
°C
Wind Press
QNH
hPa
Press
MSL
hPa
Rain since
9am
mm
Dir  Spd
km/h
Gust
km/h
Spd
kts
Gust
kts
14/11:30pm 6.6 3.4 5.1 90 0.7 N 11 22 6 12 - - 0.0
14/11:00pm 6.8 3.5 4.8 87 0.9 NW 11 19 6 10 - - 0.0
14/10:30pm 7.0 3.7 4.8 86 1.0 NW 11 19 6 10 - - 0.0
14/10:00pm 7.3 3.7 5.1 86 1.0 NW 13 20 7 11 - - 0.0
14/09:30pm 7.8 3.8 5.1 83 1.2 WNW 15 22 8 12 - - 0.0
14/09:00pm 8.2 5.1 5.7 84 1.2 W 11 19 6 10 - - 0.0
14/08:30pm 8.5 4.7 5.6 82 1.3 WNW 15 24 8 13 - - 0.0
14/08:00pm 9.4 5.5 5.4 76 1.9 WNW 15 35 8 19 - - 0.0
14/07:30pm 9.6 5.3 5.4 75 2.0 WNW 17 30 9 16 - - 0.0
14/07:00pm 10.1 6.6 5.3 72 2.2 NW 13 22 7 12 - - 0.0

Other Formats:

Comma delimited format used in spreadsheet applications
http://www.bom.gov.au/fwo/IDT60801/IDT60801.95962.axf

JavaScript Object Notation format (JSON) in row-major order
http://www.bom.gov.au/fwo/IDT60801/IDT60801.95962.json